sensor_id;sensor_type;location;lat;lon;timestamp;temperature;humidity
46283;DHT22;32017;43.700;11.820;2022-10-16T00:01:41;13.00;99.90
46283;DHT22;32017;43.700;11.820;2022-10-16T00:04:02;13.00;99.90
46283;DHT22;32017;43.700;11.820;2022-10-16T00:06:23;12.90;99.90
46283;DHT22;32017;43.700;11.820;2022-10-16T00:08:46;13.00;99.90
46283;DHT22;32017;43.700;11.820;2022-10-16T00:11:27;13.10;99.90
46283;DHT22;32017;43.700;11.820;2022-10-16T00:13:50;13.10;99.90
46283;DHT22;32017;43.700;11.820;2022-10-16T00:16:12;13.10;99.90
46283;DHT22;32017;43.700;11.820;2022-10-16T00:18:33;13.10;99.90
46283;DHT22;32017;43.700;11.820;2022-10-16T00:20:55;13.00;99.90
46283;DHT22;32017;43.700;11.820;2022-10-16T00:23:21;12.80;99.90
46283;DHT22;32017;43.700;11.820;2022-10-16T00:25:41;12.70;99.90
46283;DHT22;32017;43.700;11.820;2022-10-16T00:28:02;12.60;99.90
46283;DHT22;32017;43.700;11.820;2022-10-16T00:30:23;12.60;99.90
46283;DHT22;32017;43.700;11.820;2022-10-16T00:32:43;12.60;99.90
46283;DHT22;32017;43.700;11.820;2022-10-16T00:35:04;12.50;99.90
46283;DHT22;32017;43.700;11.820;2022-10-16T00:37:25;12.50;99.90
46283;DHT22;32017;43.700;11.820;2022-10-16T00:39:45;12.50;99.90
46283;DHT22;32017;43.700;11.820;2022-10-16T00:42:06;12.50;99.90
46283;DHT22;32017;43.700;11.820;2022-10-16T00:44:46;12.30;99.90
46283;DHT22;32017;43.700;11.820;2022-10-16T00:47:15;12.20;99.90
46283;DHT22;32017;43.700;11.820;2022-10-16T00:49:37;12.10;99.90
46283;DHT22;32017;43.700;11.820;2022-10-16T00:51:58;12.00;99.90
46283;DHT22;32017;43.700;11.820;2022-10-16T00:54:24;11.90;99.90
46283;DHT22;32017;43.700;11.820;2022-10-16T00:56:46;11.90;99.90
46283;DHT22;32017;43.700;11.820;2022-10-16T00:59:16;11.90;99.90
46283;DHT22;32017;43.700;11.820;2022-10-16T01:01:37;12.00;99.90
46283;DHT22;32017;43.700;11.820;2022-10-16T01:03:58;11.90;99.90
46283;DHT22;32017;43.700;11.820;2022-10-16T01:09:31;12.00;99.90
46283;DHT22;32017;43.700;11.820;2022-10-16T01:17:05;12.00;99.90
46283;DHT22;32017;43.700;11.820;2022-10-16T01:22:14;12.00;99.90
46283;DHT22;32017;43.700;11.820;2022-10-16T01:24:41;11.90;99.90
46283;DHT22;32017;43.700;11.820;2022-10-16T01:27:25;11.90;99.90
46283;DHT22;32017;43.700;11.820;2022-10-16T01:29:59;11.80;99.90
46283;DHT22;32017;43.700;11.820;2022-10-16T01:32:39;11.80;99.90
46283;DHT22;32017;43.700;11.820;2022-10-16T01:38:10;11.70;99.90
46283;DHT22;32017;43.700;11.820;2022-10-16T01:40:34;11.60;99.90
46283;DHT22;32017;43.700;11.820;2022-10-16T01:43:11;11.60;99.90
46283;DHT22;32017;43.700;11.820;2022-10-16T01:45:33;11.60;99.90
46283;DHT22;32017;43.700;11.820;2022-10-16T01:47:55;11.60;99.90
46283;DHT22;32017;43.700;11.820;2022-10-16T01:50:18;11.60;99.90
46283;DHT22;32017;43.700;11.820;2022-10-16T01:52:43;11.50;99.90
46283;DHT22;32017;43.700;11.820;2022-10-16T01:55:06;11.50;99.90
46283;DHT22;32017;43.700;11.820;2022-10-16T01:57:29;11.30;99.90
46283;DHT22;32017;43.700;11.820;2022-10-16T01:59:54;11.30;99.90
46283;DHT22;32017;43.700;11.820;2022-10-16T02:02:18;11.40;99.90
46283;DHT22;32017;43.700;11.820;2022-10-16T02:04:41;11.30;99.90
46283;DHT22;32017;43.700;11.820;2022-10-16T02:07:03;11.30;99.90
46283;DHT22;32017;43.700;11.820;2022-10-16T02:09:23;11.20;99.90
46283;DHT22;32017;43.700;11.820;2022-10-16T02:11:44;11.10;99.90
46283;DHT22;32017;43.700;11.820;2022-10-16T02:14:06;11.10;99.90
46283;DHT22;32017;43.700;11.820;2022-10-16T02:16:44;11.10;99.90
46283;DHT22;32017;43.700;11.820;2022-10-16T02:19:06;11.20;99.90
46283;DHT22;32017;43.700;11.820;2022-10-16T02:21:30;11.30;99.90
46283;DHT22;32017;43.700;11.820;2022-10-16T02:24:28;11.40;99.90
46283;DHT22;32017;43.700;11.820;2022-10-16T02:29:12;11.50;99.90
46283;DHT22;32017;43.700;11.820;2022-10-16T02:31:36;11.60;99.90
46283;DHT22;32017;43.700;11.820;2022-10-16T02:33:59;11.60;99.90
46283;DHT22;32017;43.700;11.820;2022-10-16T02:36:20;11.60;99.90
46283;DHT22;32017;43.700;11.820;2022-10-16T02:38:42;11.60;99.90
46283;DHT22;32017;43.700;11.820;2022-10-16T02:41:03;11.50;99.90
46283;DHT22;32017;43.700;11.820;2022-10-16T02:43:25;11.40;99.90
46283;DHT22;32017;43.700;11.820;2022-10-16T02:45:46;11.30;99.90
46283;DHT22;32017;43.700;11.820;2022-10-16T02:48:07;11.40;99.90
46283;DHT22;32017;43.700;11.820;2022-10-16T02:50:28;11.30;99.90
46283;DHT22;32017;43.700;11.820;2022-10-16T02:52:48;11.30;99.90
46283;DHT22;32017;43.700;11.820;2022-10-16T02:55:09;11.30;99.90
46283;DHT22;32017;43.700;11.820;2022-10-16T02:57:30;11.20;99.90
46283;DHT22;32017;43.700;11.820;2022-10-16T02:59:51;11.10;99.90
46283;DHT22;32017;43.700;11.820;2022-10-16T03:02:11;11.10;99.90
46283;DHT22;32017;43.700;11.820;2022-10-16T03:04:32;11.10;99.90
46283;DHT22;32017;43.700;11.820;2022-10-16T03:06:53;11.00;99.90
46283;DHT22;32017;43.700;11.820;2022-10-16T03:09:13;10.90;99.90
46283;DHT22;32017;43.700;11.820;2022-10-16T03:11:34;10.90;99.90
46283;DHT22;32017;43.700;11.820;2022-10-16T03:13:55;10.80;99.90
46283;DHT22;32017;43.700;11.820;2022-10-16T03:16:15;10.80;99.90
46283;DHT22;32017;43.700;11.820;2022-10-16T03:18:36;10.90;99.90
46283;DHT22;32017;43.700;11.820;2022-10-16T03:20:58;10.90;99.90
46283;DHT22;32017;43.700;11.820;2022-10-16T03:23:18;10.70;99.90
46283;DHT22;32017;43.700;11.820;2022-10-16T03:25:41;10.70;99.90
46283;DHT22;32017;43.700;11.820;2022-10-16T03:28:01;10.60;99.90
46283;DHT22;32017;43.700;11.820;2022-10-16T03:30:23;10.60;99.90
46283;DHT22;32017;43.700;11.820;2022-10-16T03:32:45;10.60;99.90
46283;DHT22;32017;43.700;11.820;2022-10-16T03:35:06;10.50;99.90
46283;DHT22;32017;43.700;11.820;2022-10-16T03:37:26;10.50;99.90
46283;DHT22;32017;43.700;11.820;2022-10-16T03:39:47;10.50;99.90
46283;DHT22;32017;43.700;11.820;2022-10-16T03:42:10;10.50;99.90
46283;DHT22;32017;43.700;11.820;2022-10-16T03:44:31;10.50;99.90
46283;DHT22;32017;43.700;11.820;2022-10-16T03:46:53;10.50;99.90
46283;DHT22;32017;43.700;11.820;2022-10-16T03:49:14;10.50;99.90
46283;DHT22;32017;43.700;11.820;2022-10-16T03:51:36;10.30;99.90
46283;DHT22;32017;43.700;11.820;2022-10-16T03:53:56;10.30;99.90
46283;DHT22;32017;43.700;11.820;2022-10-16T03:56:17;10.30;99.90
46283;DHT22;32017;43.700;11.820;2022-10-16T03:58:38;10.30;99.90
46283;DHT22;32017;43.700;11.820;2022-10-16T04:00:58;10.40;99.90
46283;DHT22;32017;43.700;11.820;2022-10-16T04:03:19;10.50;99.90
46283;DHT22;32017;43.700;11.820;2022-10-16T04:05:40;10.60;99.90
46283;DHT22;32017;43.700;11.820;2022-10-16T04:08:01;10.60;99.90
46283;DHT22;32017;43.700;11.820;2022-10-16T04:10:22;10.60;99.90
46283;DHT22;32017;43.700;11.820;2022-10-16T04:12:42;10.50;99.90
46283;DHT22;32017;43.700;11.820;2022-10-16T04:15:03;10.40;99.90
46283;DHT22;32017;43.700;11.820;2022-10-16T04:17:24;10.40;99.90
46283;DHT22;32017;43.700;11.820;2022-10-16T04:19:45;10.40;99.90
46283;DHT22;32017;43.700;11.820;2022-10-16T04:22:06;10.40;99.90
46283;DHT22;32017;43.700;11.820;2022-10-16T04:24:26;10.40;99.90
46283;DHT22;32017;43.700;11.820;2022-10-16T04:26:47;10.40;99.90
46283;DHT22;32017;43.700;11.820;2022-10-16T04:29:07;10.40;99.90
46283;DHT22;32017;43.700;11.820;2022-10-16T04:31:28;10.40;99.90
46283;DHT22;32017;43.700;11.820;2022-10-16T04:33:49;10.40;99.90
46283;DHT22;32017;43.700;11.820;2022-10-16T04:36:10;10.50;99.90
46283;DHT22;32017;43.700;11.820;2022-10-16T04:38:31;10.50;99.90
46283;DHT22;32017;43.700;11.820;2022-10-16T04:40:52;10.50;99.90
46283;DHT22;32017;43.700;11.820;2022-10-16T04:43:13;10.50;99.90
46283;DHT22;32017;43.700;11.820;2022-10-16T04:45:34;10.40;99.90
46283;DHT22;32017;43.700;11.820;2022-10-16T04:47:59;10.30;99.90
46283;DHT22;32017;43.700;11.820;2022-10-16T04:50:19;10.30;99.90
46283;DHT22;32017;43.700;11.820;2022-10-16T04:52:40;10.30;99.90
46283;DHT22;32017;43.700;11.820;2022-10-16T04:55:00;10.20;99.90
46283;DHT22;32017;43.700;11.820;2022-10-16T04:57:22;10.20;99.90
46283;DHT22;32017;43.700;11.820;2022-10-16T04:59:43;10.20;99.90
46283;DHT22;32017;43.700;11.820;2022-10-16T05:02:04;10.20;99.90
46283;DHT22;32017;43.700;11.820;2022-10-16T05:04:26;10.20;99.90
46283;DHT22;32017;43.700;11.820;2022-10-16T05:06:48;10.10;99.90
46283;DHT22;32017;43.700;11.820;2022-10-16T05:09:10;10.10;99.90
46283;DHT22;32017;43.700;11.820;2022-10-16T05:11:31;10.10;99.90
46283;DHT22;32017;43.700;11.820;2022-10-16T05:13:52;10.10;99.90
46283;DHT22;32017;43.700;11.820;2022-10-16T05:16:15;10.10;99.90
46283;DHT22;32017;43.700;11.820;2022-10-16T05:18:36;10.10;99.90
46283;DHT22;32017;43.700;11.820;2022-10-16T05:20:57;10.20;99.90
46283;DHT22;32017;43.700;11.820;2022-10-16T05:23:18;10.20;99.90
46283;DHT22;32017;43.700;11.820;2022-10-16T05:25:40;10.10;99.90
46283;DHT22;32017;43.700;11.820;2022-10-16T05:28:00;10.10;99.90
46283;DHT22;32017;43.700;11.820;2022-10-16T05:30:21;10.20;99.90
46283;DHT22;32017;43.700;11.820;2022-10-16T05:32:41;10.20;99.90
46283;DHT22;32017;43.700;11.820;2022-10-16T05:35:05;10.20;99.90
46283;DHT22;32017;43.700;11.820;2022-10-16T05:37:32;10.20;99.90
46283;DHT22;32017;43.700;11.820;2022-10-16T05:39:53;10.30;99.90
46283;DHT22;32017;43.700;11.820;2022-10-16T05:42:14;10.40;99.90
46283;DHT22;32017;43.700;11.820;2022-10-16T05:44:36;10.30;99.90
46283;DHT22;32017;43.700;11.820;2022-10-16T05:46:56;10.30;99.90
46283;DHT22;32017;43.700;11.820;2022-10-16T05:49:17;10.20;99.90
46283;DHT22;32017;43.700;11.820;2022-10-16T05:51:38;10.20;99.90
46283;DHT22;32017;43.700;11.820;2022-10-16T05:53:58;10.20;99.90
46283;DHT22;32017;43.700;11.820;2022-10-16T05:56:20;10.20;99.90
46283;DHT22;32017;43.700;11.820;2022-10-16T05:58:41;10.20;99.90
46283;DHT22;32017;43.700;11.820;2022-10-16T06:01:08;10.20;99.90
46283;DHT22;32017;43.700;11.820;2022-10-16T06:03:30;10.30;99.90
46283;DHT22;32017;43.700;11.820;2022-10-16T06:05:51;10.30;99.90
46283;DHT22;32017;43.700;11.820;2022-10-16T06:08:12;10.40;99.90
46283;DHT22;32017;43.700;11.820;2022-10-16T06:10:32;10.40;99.90
46283;DHT22;32017;43.700;11.820;2022-10-16T06:12:53;10.40;99.90
46283;DHT22;32017;43.700;11.820;2022-10-16T06:15:13;10.50;99.90
46283;DHT22;32017;43.700;11.820;2022-10-16T06:17:34;10.50;99.90
46283;DHT22;32017;43.700;11.820;2022-10-16T06:19:54;10.40;99.90
46283;DHT22;32017;43.700;11.820;2022-10-16T06:22:15;10.30;99.90
46283;DHT22;32017;43.700;11.820;2022-10-16T06:24:37;10.40;99.90
46283;DHT22;32017;43.700;11.820;2022-10-16T06:26:58;10.40;99.90
46283;DHT22;32017;43.700;11.820;2022-10-16T06:29:19;10.30;99.90
46283;DHT22;32017;43.700;11.820;2022-10-16T06:31:40;10.20;99.90
46283;DHT22;32017;43.700;11.820;2022-10-16T06:34:00;10.30;99.90
46283;DHT22;32017;43.700;11.820;2022-10-16T06:36:23;10.40;99.90
46283;DHT22;32017;43.700;11.820;2022-10-16T06:38:44;10.50;99.90
46283;DHT22;32017;43.700;11.820;2022-10-16T06:41:06;10.50;99.90
46283;DHT22;32017;43.700;11.820;2022-10-16T06:43:29;10.50;99.90
46283;DHT22;32017;43.700;11.820;2022-10-16T06:45:54;10.50;99.90
46283;DHT22;32017;43.700;11.820;2022-10-16T06:48:15;10.50;99.90
46283;DHT22;32017;43.700;11.820;2022-10-16T06:50:36;10.50;99.90
46283;DHT22;32017;43.700;11.820;2022-10-16T06:52:56;10.50;99.90
46283;DHT22;32017;43.700;11.820;2022-10-16T06:55:17;10.50;99.90
46283;DHT22;32017;43.700;11.820;2022-10-16T06:57:37;10.40;99.90
46283;DHT22;32017;43.700;11.820;2022-10-16T06:59:58;10.50;99.90
46283;DHT22;32017;43.700;11.820;2022-10-16T07:02:18;10.60;99.90
46283;DHT22;32017;43.700;11.820;2022-10-16T07:04:39;10.70;99.90
46283;DHT22;32017;43.700;11.820;2022-10-16T07:07:00;10.70;99.90
46283;DHT22;32017;43.700;11.820;2022-10-16T07:09:26;10.70;99.90
46283;DHT22;32017;43.700;11.820;2022-10-16T07:11:46;10.70;99.90
46283;DHT22;32017;43.700;11.820;2022-10-16T07:14:25;10.70;99.90
46283;DHT22;32017;43.700;11.820;2022-10-16T07:16:46;10.70;99.90
46283;DHT22;32017;43.700;11.820;2022-10-16T07:19:08;10.60;99.90
46283;DHT22;32017;43.700;11.820;2022-10-16T07:21:33;10.70;99.90
46283;DHT22;32017;43.700;11.820;2022-10-16T07:23:58;10.80;99.90
46283;DHT22;32017;43.700;11.820;2022-10-16T07:26:19;10.90;99.90
46283;DHT22;32017;43.700;11.820;2022-10-16T07:28:39;10.90;99.90
46283;DHT22;32017;43.700;11.820;2022-10-16T07:31:04;10.90;99.90
46283;DHT22;32017;43.700;11.820;2022-10-16T07:33:25;10.90;99.90
46283;DHT22;32017;43.700;11.820;2022-10-16T07:35:54;10.90;99.90
46283;DHT22;32017;43.700;11.820;2022-10-16T07:38:14;11.00;99.90
46283;DHT22;32017;43.700;11.820;2022-10-16T07:40:35;11.00;99.90
46283;DHT22;32017;43.700;11.820;2022-10-16T07:42:55;11.10;99.90
46283;DHT22;32017;43.700;11.820;2022-10-16T07:45:16;11.30;99.90
46283;DHT22;32017;43.700;11.820;2022-10-16T07:47:37;11.40;99.90
46283;DHT22;32017;43.700;11.820;2022-10-16T07:49:57;11.60;99.90
46283;DHT22;32017;43.700;11.820;2022-10-16T07:52:18;11.70;99.90
46283;DHT22;32017;43.700;11.820;2022-10-16T07:54:38;11.80;99.90
46283;DHT22;32017;43.700;11.820;2022-10-16T07:57:01;11.90;99.90
46283;DHT22;32017;43.700;11.820;2022-10-16T07:59:21;12.00;99.90
46283;DHT22;32017;43.700;11.820;2022-10-16T08:01:42;12.10;99.90
46283;DHT22;32017;43.700;11.820;2022-10-16T08:04:03;12.20;99.90
46283;DHT22;32017;43.700;11.820;2022-10-16T08:06:28;12.20;99.90
46283;DHT22;32017;43.700;11.820;2022-10-16T08:08:49;12.30;99.90
46283;DHT22;32017;43.700;11.820;2022-10-16T08:11:10;12.20;99.90
46283;DHT22;32017;43.700;11.820;2022-10-16T08:13:31;12.30;99.90
46283;DHT22;32017;43.700;11.820;2022-10-16T08:15:54;12.40;99.90
46283;DHT22;32017;43.700;11.820;2022-10-16T08:18:15;12.50;99.90
46283;DHT22;32017;43.700;11.820;2022-10-16T08:20:39;12.60;99.90
46283;DHT22;32017;43.700;11.820;2022-10-16T08:23:00;12.70;99.90
46283;DHT22;32017;43.700;11.820;2022-10-16T08:25:22;12.80;99.90
46283;DHT22;32017;43.700;11.820;2022-10-16T08:27:43;12.80;99.90
46283;DHT22;32017;43.700;11.820;2022-10-16T08:30:05;12.80;99.90
46283;DHT22;32017;43.700;11.820;2022-10-16T08:32:27;12.80;99.90
46283;DHT22;32017;43.700;11.820;2022-10-16T08:34:49;13.00;99.90
46283;DHT22;32017;43.700;11.820;2022-10-16T08:37:10;13.10;99.90
46283;DHT22;32017;43.700;11.820;2022-10-16T08:39:34;13.30;99.90
46283;DHT22;32017;43.700;11.820;2022-10-16T08:42:11;13.40;99.90
46283;DHT22;32017;43.700;11.820;2022-10-16T08:44:58;13.50;99.90
46283;DHT22;32017;43.700;11.820;2022-10-16T08:50:27;13.80;99.90
46283;DHT22;32017;43.700;11.820;2022-10-16T08:52:48;14.00;99.90
46283;DHT22;32017;43.700;11.820;2022-10-16T08:57:54;14.30;99.90
46283;DHT22;32017;43.700;11.820;2022-10-16T09:00:16;14.30;99.90
46283;DHT22;32017;43.700;11.820;2022-10-16T09:08:06;14.70;99.90
46283;DHT22;32017;43.700;11.820;2022-10-16T09:13:17;15.10;99.90
46283;DHT22;32017;43.700;11.820;2022-10-16T09:23:22;15.90;99.90
46283;DHT22;32017;43.700;11.820;2022-10-16T09:25:48;16.10;99.90
46283;DHT22;32017;43.700;11.820;2022-10-16T09:28:09;16.30;99.90
46283;DHT22;32017;43.700;11.820;2022-10-16T09:30:30;16.50;99.90
46283;DHT22;32017;43.700;11.820;2022-10-16T09:32:53;17.20;99.90
46283;DHT22;32017;43.700;11.820;2022-10-16T09:35:18;17.40;99.90
46283;DHT22;32017;43.700;11.820;2022-10-16T09:37:41;17.80;99.90
46283;DHT22;32017;43.700;11.820;2022-10-16T09:40:02;17.60;99.90
46283;DHT22;32017;43.700;11.820;2022-10-16T09:42:35;17.70;99.90
46283;DHT22;32017;43.700;11.820;2022-10-16T09:44:56;17.80;99.90
46283;DHT22;32017;43.700;11.820;2022-10-16T09:47:27;18.10;99.90
46283;DHT22;32017;43.700;11.820;2022-10-16T09:49:57;18.10;99.90
46283;DHT22;32017;43.700;11.820;2022-10-16T09:52:20;18.30;99.90
46283;DHT22;32017;43.700;11.820;2022-10-16T09:54:59;18.60;99.90
46283;DHT22;32017;43.700;11.820;2022-10-16T09:57:20;18.80;99.90
46283;DHT22;32017;43.700;11.820;2022-10-16T09:59:55;18.90;99.90
46283;DHT22;32017;43.700;11.820;2022-10-16T10:02:18;19.10;99.90
46283;DHT22;32017;43.700;11.820;2022-10-16T10:04:50;19.60;99.90
46283;DHT22;32017;43.700;11.820;2022-10-16T10:07:39;19.90;99.90
46283;DHT22;32017;43.700;11.820;2022-10-16T10:10:04;20.00;99.90
46283;DHT22;32017;43.700;11.820;2022-10-16T10:12:27;20.30;99.90
46283;DHT22;32017;43.700;11.820;2022-10-16T10:14:51;20.50;99.90
46283;DHT22;32017;43.700;11.820;2022-10-16T10:17:17;20.60;99.90
46283;DHT22;32017;43.700;11.820;2022-10-16T10:22:30;21.10;99.90
46283;DHT22;32017;43.700;11.820;2022-10-16T10:25:19;21.10;99.90
46283;DHT22;32017;43.700;11.820;2022-10-16T10:28:00;21.10;99.90
46283;DHT22;32017;43.700;11.820;2022-10-16T10:44:14;21.90;99.90
46283;DHT22;32017;43.700;11.820;2022-10-16T10:46:42;22.30;99.90
46283;DHT22;32017;43.700;11.820;2022-10-16T10:54:24;22.90;99.90
46283;DHT22;32017;43.700;11.820;2022-10-16T10:59:46;22.90;99.90
46283;DHT22;32017;43.700;11.820;2022-10-16T11:02:38;22.70;99.90
46283;DHT22;32017;43.700;11.820;2022-10-16T11:07:49;22.60;99.90
46283;DHT22;32017;43.700;11.820;2022-10-16T11:10:25;22.60;99.90
46283;DHT22;32017;43.700;11.820;2022-10-16T11:12:55;22.50;99.90
46283;DHT22;32017;43.700;11.820;2022-10-16T11:15:21;22.70;99.90
46283;DHT22;32017;43.700;11.820;2022-10-16T11:18:06;22.80;99.90
46283;DHT22;32017;43.700;11.820;2022-10-16T11:20:34;23.00;99.90
46283;DHT22;32017;43.700;11.820;2022-10-16T11:23:05;23.20;99.90
46283;DHT22;32017;43.700;11.820;2022-10-16T11:25:30;23.20;99.90
46283;DHT22;32017;43.700;11.820;2022-10-16T11:28:07;23.20;99.90
46283;DHT22;32017;43.700;11.820;2022-10-16T11:30:33;23.40;99.90
46283;DHT22;32017;43.700;11.820;2022-10-16T11:32:56;22.90;99.90
46283;DHT22;32017;43.700;11.820;2022-10-16T11:35:25;23.00;99.90
46283;DHT22;32017;43.700;11.820;2022-10-16T11:37:49;23.60;99.90
46283;DHT22;32017;43.700;11.820;2022-10-16T11:40:32;23.90;99.90
46283;DHT22;32017;43.700;11.820;2022-10-16T11:43:05;23.60;99.90
46283;DHT22;32017;43.700;11.820;2022-10-16T11:45:39;23.10;99.90
46283;DHT22;32017;43.700;11.820;2022-10-16T11:48:32;23.50;99.90
46283;DHT22;32017;43.700;11.820;2022-10-16T11:51:14;23.70;99.90
46283;DHT22;32017;43.700;11.820;2022-10-16T11:53:46;23.40;99.90
46283;DHT22;32017;43.700;11.820;2022-10-16T11:56:17;23.50;99.90
46283;DHT22;32017;43.700;11.820;2022-10-16T11:59:02;24.10;99.90
46283;DHT22;32017;43.700;11.820;2022-10-16T12:04:39;23.70;99.90
46283;DHT22;32017;43.700;11.820;2022-10-16T12:07:06;23.10;99.90
46283;DHT22;32017;43.700;11.820;2022-10-16T12:09:34;22.70;99.90
46283;DHT22;32017;43.700;11.820;2022-10-16T12:11:57;22.90;99.90
46283;DHT22;32017;43.700;11.820;2022-10-16T12:17:04;23.40;99.90
46283;DHT22;32017;43.700;11.820;2022-10-16T12:19:42;22.70;99.90
46283;DHT22;32017;43.700;11.820;2022-10-16T12:22:03;22.70;99.90
46283;DHT22;32017;43.700;11.820;2022-10-16T12:24:37;23.00;99.90
46283;DHT22;32017;43.700;11.820;2022-10-16T12:26:58;23.00;99.90
46283;DHT22;32017;43.700;11.820;2022-10-16T12:29:39;22.90;99.90
46283;DHT22;32017;43.700;11.820;2022-10-16T12:32:06;22.80;99.90
46283;DHT22;32017;43.700;11.820;2022-10-16T12:35:02;22.80;99.90
46283;DHT22;32017;43.700;11.820;2022-10-16T12:37:26;23.00;99.90
46283;DHT22;32017;43.700;11.820;2022-10-16T12:39:48;22.60;99.90
46283;DHT22;32017;43.700;11.820;2022-10-16T12:44:50;22.70;99.90
46283;DHT22;32017;43.700;11.820;2022-10-16T12:47:21;22.70;99.90
46283;DHT22;32017;43.700;11.820;2022-10-16T12:49:51;22.70;99.90
46283;DHT22;32017;43.700;11.820;2022-10-16T12:52:35;22.60;99.90
46283;DHT22;32017;43.700;11.820;2022-10-16T12:54:58;23.00;99.90
46283;DHT22;32017;43.700;11.820;2022-10-16T13:00:18;22.70;99.90
46283;DHT22;32017;43.700;11.820;2022-10-16T13:05:29;22.50;99.90
46283;DHT22;32017;43.700;11.820;2022-10-16T13:08:06;22.50;99.90
46283;DHT22;32017;43.700;11.820;2022-10-16T13:24:08;22.60;99.90
46283;DHT22;32017;43.700;11.820;2022-10-16T13:29:32;23.50;99.90
46283;DHT22;32017;43.700;11.820;2022-10-16T13:31:52;23.50;99.90
46283;DHT22;32017;43.700;11.820;2022-10-16T13:34:16;23.60;99.90
46283;DHT22;32017;43.700;11.820;2022-10-16T13:36:51;23.00;99.90
46283;DHT22;32017;43.700;11.820;2022-10-16T13:39:29;23.40;99.90
46283;DHT22;32017;43.700;11.820;2022-10-16T13:44:33;23.30;99.90
46283;DHT22;32017;43.700;11.820;2022-10-16T13:47:01;23.50;99.90
46283;DHT22;32017;43.700;11.820;2022-10-16T13:49:22;23.30;99.90
46283;DHT22;32017;43.700;11.820;2022-10-16T13:51:54;23.40;99.90
46283;DHT22;32017;43.700;11.820;2022-10-16T13:54:15;23.30;99.90
46283;DHT22;32017;43.700;11.820;2022-10-16T13:56:36;23.30;99.90
46283;DHT22;32017;43.700;11.820;2022-10-16T14:01:45;23.00;99.90
46283;DHT22;32017;43.700;11.820;2022-10-16T14:04:08;22.90;99.90
46283;DHT22;32017;43.700;11.820;2022-10-16T14:06:29;22.60;99.90
46283;DHT22;32017;43.700;11.820;2022-10-16T14:09:35;22.70;99.90
46283;DHT22;32017;43.700;11.820;2022-10-16T14:11:48;22.80;99.90
46283;DHT22;32017;43.700;11.820;2022-10-16T14:14:11;22.80;99.90
46283;DHT22;32017;43.700;11.820;2022-10-16T14:16:33;22.80;99.90
46283;DHT22;32017;43.700;11.820;2022-10-16T14:18:58;22.90;99.90
46283;DHT22;32017;43.700;11.820;2022-10-16T14:21:19;22.70;99.90
46283;DHT22;32017;43.700;11.820;2022-10-16T14:23:43;22.50;99.90
46283;DHT22;32017;43.700;11.820;2022-10-16T14:28:30;22.20;99.90
46283;DHT22;32017;43.700;11.820;2022-10-16T14:30:55;22.20;99.90
46283;DHT22;32017;43.700;11.820;2022-10-16T14:36:17;22.10;99.90
46283;DHT22;32017;43.700;11.820;2022-10-16T14:38:40;22.00;99.90
46283;DHT22;32017;43.700;11.820;2022-10-16T14:41:01;21.80;99.90
46283;DHT22;32017;43.700;11.820;2022-10-16T14:43:35;21.60;99.90
46283;DHT22;32017;43.700;11.820;2022-10-16T14:45:57;21.50;99.90
46283;DHT22;32017;43.700;11.820;2022-10-16T14:48:18;21.40;99.90
46283;DHT22;32017;43.700;11.820;2022-10-16T14:50:40;21.40;99.90
46283;DHT22;32017;43.700;11.820;2022-10-16T14:53:01;21.30;99.90
46283;DHT22;32017;43.700;11.820;2022-10-16T14:55:21;21.20;99.90
46283;DHT22;32017;43.700;11.820;2022-10-16T14:57:44;21.20;99.90
46283;DHT22;32017;43.700;11.820;2022-10-16T15:00:19;21.10;99.90
46283;DHT22;32017;43.700;11.820;2022-10-16T15:02:40;21.00;99.90
46283;DHT22;32017;43.700;11.820;2022-10-16T15:05:30;21.00;99.90
46283;DHT22;32017;43.700;11.820;2022-10-16T15:07:54;21.00;99.90
46283;DHT22;32017;43.700;11.820;2022-10-16T15:10:17;21.00;99.90
46283;DHT22;32017;43.700;11.820;2022-10-16T15:12:39;20.90;99.90
46283;DHT22;32017;43.700;11.820;2022-10-16T15:15:01;20.90;99.90
46283;DHT22;32017;43.700;11.820;2022-10-16T15:17:21;20.80;99.90
46283;DHT22;32017;43.700;11.820;2022-10-16T15:19:43;20.70;99.90
46283;DHT22;32017;43.700;11.820;2022-10-16T15:22:03;20.60;99.90
46283;DHT22;32017;43.700;11.820;2022-10-16T15:24:24;20.50;99.90
46283;DHT22;32017;43.700;11.820;2022-10-16T15:26:45;20.60;99.90
46283;DHT22;32017;43.700;11.820;2022-10-16T15:29:09;20.50;99.90
46283;DHT22;32017;43.700;11.820;2022-10-16T15:31:30;20.50;99.90
46283;DHT22;32017;43.700;11.820;2022-10-16T15:33:52;20.40;99.90
46283;DHT22;32017;43.700;11.820;2022-10-16T15:36:16;20.30;99.90
46283;DHT22;32017;43.700;11.820;2022-10-16T15:38:36;20.20;99.90
46283;DHT22;32017;43.700;11.820;2022-10-16T15:40:57;20.10;99.90
46283;DHT22;32017;43.700;11.820;2022-10-16T15:43:17;20.00;99.90
46283;DHT22;32017;43.700;11.820;2022-10-16T15:45:39;19.90;99.90
46283;DHT22;32017;43.700;11.820;2022-10-16T15:48:01;19.90;99.90
46283;DHT22;32017;43.700;11.820;2022-10-16T15:50:21;19.80;99.90
46283;DHT22;32017;43.700;11.820;2022-10-16T15:52:42;19.70;99.90
46283;DHT22;32017;43.700;11.820;2022-10-16T15:55:03;19.60;99.90
46283;DHT22;32017;43.700;11.820;2022-10-16T15:57:23;19.50;99.90
46283;DHT22;32017;43.700;11.820;2022-10-16T15:59:44;19.50;99.90
46283;DHT22;32017;43.700;11.820;2022-10-16T16:02:05;19.40;99.90
46283;DHT22;32017;43.700;11.820;2022-10-16T16:04:26;19.30;99.90
46283;DHT22;32017;43.700;11.820;2022-10-16T16:07:04;19.30;99.90
46283;DHT22;32017;43.700;11.820;2022-10-16T16:09:31;19.10;99.90
46283;DHT22;32017;43.700;11.820;2022-10-16T16:11:52;19.00;99.90
46283;DHT22;32017;43.700;11.820;2022-10-16T16:14:13;18.90;99.90
46283;DHT22;32017;43.700;11.820;2022-10-16T16:16:36;18.90;99.90
46283;DHT22;32017;43.700;11.820;2022-10-16T16:18:59;18.90;99.90
46283;DHT22;32017;43.700;11.820;2022-10-16T16:21:20;18.90;99.90
46283;DHT22;32017;43.700;11.820;2022-10-16T16:23:42;18.80;99.90
46283;DHT22;32017;43.700;11.820;2022-10-16T16:26:11;18.80;99.90
46283;DHT22;32017;43.700;11.820;2022-10-16T16:28:32;18.80;99.90
46283;DHT22;32017;43.700;11.820;2022-10-16T16:30:53;18.70;99.90
46283;DHT22;32017;43.700;11.820;2022-10-16T16:33:13;18.80;99.90
46283;DHT22;32017;43.700;11.820;2022-10-16T16:35:34;18.80;99.90
46283;DHT22;32017;43.700;11.820;2022-10-16T16:37:55;18.80;99.90
46283;DHT22;32017;43.700;11.820;2022-10-16T16:40:15;18.70;99.90
46283;DHT22;32017;43.700;11.820;2022-10-16T16:42:36;18.70;99.90
46283;DHT22;32017;43.700;11.820;2022-10-16T16:44:57;18.60;99.90